Time;durP1;ratioP1;P1;durP2;ratioP2;P2;SDS_P1;SDS_P2;PMS_P1;PMS_P2;Temp;Humidity;BMP_temperature;BMP_pressure;BME280_temperature;BME280_humidity;BME280_pressure;Samples;Min_cycle;Max_cycle;Signal;HPM_P1;HPM_P2
2022/10/15 00:01:15;;;;;;;48.80;28.50;;;;;;;8.33;83.10;100079.23;127211;1278;108071;-74
2022/10/15 00:04:20;;;;;;;51.30;32.30;;;;;;;8.33;83.56;100078.03;126998;1285;107450;-73
2022/10/15 00:07:26;;;;;;;53.30;33.00;;;;;;;8.34;83.50;100082.34;127047;1278;107255;-74
2022/10/15 00:10:31;;;;;;;50.80;32.40;;;;;;;8.38;83.70;100080.40;126961;1278;107516;-73
2022/10/15 00:13:38;;;;;;;51.50;32.60;;;;;;;8.37;83.43;100078.35;126980;1295;107601;-75
2022/10/15 00:16:43;;;;;;;50.20;30.00;;;;;;;8.35;83.61;100078.71;127043;1278;107531;-73
2022/10/15 00:19:49;;;;;;;46.90;28.10;;;;;;;8.33;83.44;100084.23;126979;1279;107405;-74
2022/10/15 00:22:54;;;;;;;49.20;26.70;;;;;;;8.29;83.54;100079.66;126980;1285;107373;-73
2022/10/15 00:26:08;;;;;;;46.70;27.10;;;;;;;8.26;83.35;100074.55;127087;1279;107334;-73
2022/10/15 00:29:13;;;;;;;52.80;30.80;;;;;;;8.25;83.39;100077.29;127123;1279;107634;-74
2022/10/15 00:32:19;;;;;;;50.10;30.30;;;;;;;8.24;83.39;100077.59;127013;1280;107506;-72
2022/10/15 00:35:24;;;;;;;52.30;30.00;;;;;;;8.23;83.56;100074.13;126926;1285;107501;-73
2022/10/15 00:38:30;;;;;;;52.90;32.60;;;;;;;8.24;83.72;100068.71;126693;1283;108469;-72
2022/10/15 00:41:40;;;;;;;49.50;28.60;;;;;;;8.24;83.96;100065.21;126909;1286;107327;-73
2022/10/15 00:44:55;;;;;;;46.80;27.60;;;;;;;8.23;83.98;100065.78;126993;1285;106314;-73
2022/10/15 00:48:01;;;;;;;43.90;27.40;;;;;;;8.26;84.29;100059.90;126970;1292;107415;-72
2022/10/15 00:51:06;;;;;;;46.40;29.00;;;;;;;8.28;84.11;100050.63;127032;1286;107498;-73
2022/10/15 00:54:14;;;;;;;50.40;31.40;;;;;;;8.32;84.08;100052.80;126770;1287;107433;-73
2022/10/15 00:57:20;;;;;;;48.40;30.70;;;;;;;8.33;84.11;100052.65;126816;1296;106545;-73
2022/10/15 01:00:25;;;;;;;42.30;25.90;;;;;;;8.33;84.22;100047.89;126931;1286;107183;-73
2022/10/15 01:03:34;;;;;;;45.20;26.00;;;;;;;8.33;84.51;100044.14;126685;1281;106540;-73
2022/10/15 01:06:39;;;;;;;49.70;30.20;;;;;;;8.34;84.49;100045.33;127403;1287;107405;-73
2022/10/15 01:09:47;;;;;;;48.90;30.10;;;;;;;8.37;84.66;100042.39;126978;1285;107524;-73
2022/10/15 01:13:07;;;;;;;46.30;29.70;;;;;;;8.41;84.68;100040.27;126947;1286;107549;-73
2022/10/15 01:16:19;;;;;;;44.80;29.10;;;;;;;8.41;84.61;100038.10;127002;1285;107548;-73
2022/10/15 01:19:43;;;;;;;48.20;30.80;;;;;;;8.40;84.92;100033.04;126905;1285;107522;-75
2022/10/15 01:23:08;;;;;;;43.00;27.10;;;;;;;8.38;84.70;100035.67;126978;1285;107301;-75
2022/10/15 01:26:35;;;;;;;45.30;25.80;;;;;;;8.37;84.73;100031.95;127078;1285;107461;-74
2022/10/15 01:30:05;;;;;;;45.60;28.20;;;;;;;8.38;84.95;100026.88;126821;1281;107488;-73
2022/10/15 01:33:25;;;;;;;45.80;28.40;;;;;;;8.45;85.18;100026.63;126944;1279;107386;-74
2022/10/15 01:36:37;;;;;;;48.10;30.20;;;;;;;8.52;85.24;100022.39;126817;1278;107558;-74
2022/10/15 01:39:46;;;;;;;42.20;27.60;;;;;;;8.57;85.15;100020.29;127240;1285;107433;-75
2022/10/15 01:42:56;;;;;;;43.10;26.60;;;;;;;8.60;85.26;100015.21;127012;1284;107548;-75
2022/10/15 01:46:07;;;;;;;46.50;25.90;;;;;;;8.64;85.38;100008.50;126992;1290;107509;-75
2022/10/15 01:49:38;;;;;;;45.80;28.40;;;;;;;8.70;85.46;100010.20;126927;1298;107510;-74
2022/10/15 01:52:45;;;;;;;43.90;28.40;;;;;;;8.75;85.41;100005.88;126985;1285;109249;-73
2022/10/15 01:55:50;;;;;;;46.30;28.50;;;;;;;8.77;85.31;100004.77;126915;1285;107472;-75
2022/10/15 01:58:58;;;;;;;48.30;30.10;;;;;;;8.78;85.22;100005.93;126906;1286;107534;-75
2022/10/15 02:02:03;;;;;;;43.50;26.60;;;;;;;8.76;85.23;100004.86;126828;1285;106623;-75
2022/10/15 02:05:16;;;;;;;40.60;24.60;;;;;;;8.71;85.20;100007.45;126994;1284;107529;-72
2022/10/15 02:08:34;;;;;;;45.60;27.40;;;;;;;8.71;85.21;100009.80;126916;1278;106568;-72
2022/10/15 02:11:54;;;;;;;45.90;29.00;;;;;;;8.72;85.20;100007.58;126816;1286;107333;-73
2022/10/15 02:15:06;;;;;;;44.00;28.40;;;;;;;8.72;85.35;100006.66;126846;1285;107582;-75
2022/10/15 02:18:16;;;;;;;45.70;28.70;;;;;;;8.75;85.41;100002.83;127004;1284;107447;-73
2022/10/15 02:21:29;;;;;;;44.40;27.40;;;;;;;8.77;85.33;99999.80;126919;1278;107159;-73
2022/10/15 02:24:39;;;;;;;57.00;30.80;;;;;;;8.80;85.49;99999.28;126802;1287;107502;-73
2022/10/15 02:27:49;;;;;;;60.10;34.10;;;;;;;8.86;85.88;99997.89;127041;1280;107423;-75
2022/10/15 02:30:57;;;;;;;57.50;33.20;;;;;;;8.92;85.60;99991.05;127198;1285;107376;-73
2022/10/15 02:34:07;;;;;;;45.40;31.00;;;;;;;9.01;85.98;99983.43;126997;1286;107510;-73
2022/10/15 02:37:18;;;;;;;58.20;32.30;;;;;;;9.09;86.27;99976.69;126744;1282;107217;-73
2022/10/15 02:40:29;;;;;;;42.70;27.40;;;;;;;9.15;86.28;99967.93;126955;1287;107455;-75
2022/10/15 02:43:37;;;;;;;41.20;25.30;;;;;;;9.19;86.32;99966.21;126960;1280;107519;-73
2022/10/15 02:46:43;;;;;;;41.50;26.70;;;;;;;9.26;86.53;99965.62;127002;1285;107523;-74
2022/10/15 02:49:49;;;;;;;47.20;28.60;;;;;;;9.32;86.68;99966.75;126920;1285;107510;-74
2022/10/15 02:52:55;;;;;;;44.90;29.30;;;;;;;9.39;86.64;99960.52;127001;1286;107562;-73
2022/10/15 02:56:00;;;;;;;45.50;29.30;;;;;;;9.46;86.63;99959.30;126959;1280;107482;-73
2022/10/15 02:59:06;;;;;;;46.30;27.20;;;;;;;9.50;86.66;99965.02;126874;1287;107027;-74
2022/10/15 03:02:12;;;;;;;42.00;24.70;;;;;;;9.52;86.69;99962.30;126947;1285;107784;-73
2022/10/15 03:05:17;;;;;;;43.70;27.90;;;;;;;9.57;87.06;99963.33;127020;1279;107506;-74
2022/10/15 03:08:22;;;;;;;44.40;27.80;;;;;;;9.63;87.17;99965.27;126938;1284;107687;-73
2022/10/15 03:11:28;;;;;;;46.20;29.40;;;;;;;9.69;87.32;99960.96;126910;1284;107529;-73
2022/10/15 03:14:34;;;;;;;44.10;28.20;;;;;;;9.73;87.25;99960.33;126742;1280;107614;-75
2022/10/15 03:17:39;;;;;;;41.60;25.70;;;;;;;9.75;87.10;99959.48;126923;1280;107537;-73
2022/10/15 03:20:52;;;;;;;39.50;23.90;;;;;;;9.77;87.25;99958.83;127333;1278;107498;-73
2022/10/15 03:23:58;;;;;;;42.70;27.40;;;;;;;9.81;87.63;99958.27;127737;1281;107509;-73
2022/10/15 03:27:04;;;;;;;41.00;26.50;;;;;;;9.88;87.26;99954.08;127059;1282;107642;-73
2022/10/15 03:30:11;;;;;;;43.80;28.60;;;;;;;9.92;87.49;99952.93;126998;1285;106521;-74
2022/10/15 03:33:17;;;;;;;40.30;26.90;;;;;;;9.95;87.49;99950.52;126870;1286;107530;-75
2022/10/15 03:36:23;;;;;;;39.80;25.70;;;;;;;9.96;87.65;99952.90;127037;1285;107825;-73
2022/10/15 03:39:28;;;;;;;35.70;22.70;;;;;;;9.97;87.46;99948.58;126984;1278;107468;-73
2022/10/15 03:42:36;;;;;;;44.80;28.10;;;;;;;9.99;87.87;99943.73;127023;1279;107522;-73
2022/10/15 03:45:42;;;;;;;39.60;25.80;;;;;;;10.04;87.83;99934.33;127129;1284;107500;-73
2022/10/15 03:48:59;;;;;;;39.00;25.70;;;;;;;10.09;87.41;99933.65;127073;1285;107513;-73
2022/10/15 03:52:04;;;;;;;38.00;26.80;;;;;;;10.11;87.64;99940.89;127051;1279;107473;-73
2022/10/15 03:55:11;;;;;;;36.50;23.30;;;;;;;10.10;87.68;99937.05;126926;1279;107449;-74
2022/10/15 03:58:21;;;;;;;36.00;23.30;;;;;;;10.08;87.79;99930.65;127027;1278;107519;-73
2022/10/15 04:01:32;;;;;;;42.40;25.70;;;;;;;10.10;87.95;99931.39;127280;1279;107498;-73
2022/10/15 04:04:40;;;;;;;38.30;26.10;;;;;;;10.12;87.83;99936.84;127211;1284;107490;-74
2022/10/15 04:07:45;;;;;;;37.20;25.10;;;;;;;10.15;87.86;99934.98;127108;1278;107327;-73
2022/10/15 04:10:53;;;;;;;53.10;28.30;;;;;;;10.15;87.89;99932.29;127253;1279;107549;-74
2022/10/15 04:13:59;;;;;;;39.20;23.40;;;;;;;10.15;88.00;99930.29;127255;1278;107499;-73
2022/10/15 04:17:04;;;;;;;36.10;22.20;;;;;;;10.14;87.82;99925.81;127127;1278;107486;-74
2022/10/15 04:20:12;;;;;;;39.60;25.30;;;;;;;10.14;87.57;99921.52;126956;1285;107494;-73
2022/10/15 04:23:21;;;;;;;48.30;32.60;;;;;;;10.16;87.89;99925.79;126938;1278;107608;-73
2022/10/15 04:26:45;;;;;;;45.10;29.80;;;;;;;10.15;87.60;99927.13;127262;1278;107542;-73
2022/10/15 04:29:51;;;;;;;46.10;28.90;;;;;;;10.11;87.93;99922.03;127384;1285;107517;-73
2022/10/15 04:32:57;;;;;;;38.90;24.20;;;;;;;10.04;87.53;99923.45;127108;1286;107597;-73
2022/10/15 04:36:06;;;;;;;34.20;22.40;;;;;;;9.98;87.70;99923.19;127249;1279;107545;-74
2022/10/15 04:39:26;;;;;;;44.60;26.70;;;;;;;9.94;87.58;99927.16;127214;1286;107511;-73
2022/10/15 04:42:32;;;;;;;42.40;27.60;;;;;;;9.92;87.41;99930.05;127202;1286;107622;-73
2022/10/15 04:45:37;;;;;;;41.30;26.90;;;;;;;9.91;87.90;99925.68;126979;1274;107667;-75
2022/10/15 04:48:43;;;;;;;38.70;25.40;;;;;;;9.88;87.58;99921.70;126679;1280;107598;-74
2022/10/15 04:51:49;;;;;;;34.90;23.40;;;;;;;9.79;87.43;99917.05;126943;1281;107578;-74
2022/10/15 04:55:01;;;;;;;40.90;23.10;;;;;;;9.73;87.57;99917.20;126998;1284;107516;-74
2022/10/15 04:58:07;;;;;;;37.60;24.10;;;;;;;9.68;87.47;99915.63;127110;1289;107517;-74
2022/10/15 05:01:15;;;;;;;40.70;25.70;;;;;;;9.63;87.47;99914.85;126757;1286;107550;-74
2022/10/15 05:04:46;;;;;;;36.20;25.10;;;;;;;9.57;87.54;99908.35;126957;1285;107515;-74
2022/10/15 05:07:52;;;;;;;41.50;25.70;;;;;;;9.53;87.42;99906.63;126922;1278;106542;-74
2022/10/15 05:11:01;;;;;;;41.30;27.10;;;;;;;9.49;87.75;99914.35;127053;1282;107593;-74
2022/10/15 05:14:08;;;;;;;40.80;24.40;;;;;;;9.42;87.63;99914.94;127055;1278;107494;-74
2022/10/15 05:17:14;;;;;;;38.40;22.50;;;;;;;9.37;87.71;99919.89;126910;1286;108027;-73
2022/10/15 05:20:20;;;;;;;41.40;24.70;;;;;;;9.34;87.68;99915.04;127095;1279;107505;-73
2022/10/15 05:23:26;;;;;;;37.90;25.40;;;;;;;9.33;87.58;99918.05;126931;1278;107494;-74
2022/10/15 05:26:41;;;;;;;37.00;24.70;;;;;;;9.31;87.60;99919.14;126940;1279;107608;-73
2022/10/15 05:29:47;;;;;;;40.50;25.20;;;;;;;9.29;87.76;99916.68;126823;1286;108073;-74
2022/10/15 05:32:54;;;;;;;37.90;23.40;;;;;;;9.22;87.44;99915.92;127044;1279;107539;-75
2022/10/15 05:36:09;;;;;;;33.40;21.60;;;;;;;9.19;87.44;99919.46;126898;1280;107470;-74
2022/10/15 05:39:15;;;;;;;37.00;24.90;;;;;;;9.18;87.71;99920.75;126759;1285;107975;-74
2022/10/15 05:42:22;;;;;;;39.20;25.60;;;;;;;9.19;87.53;99921.75;126844;1278;107521;-74
2022/10/15 05:45:35;;;;;;;39.70;25.80;;;;;;;9.20;87.64;99917.67;127016;1285;107518;-73
2022/10/15 05:48:42;;;;;;;39.80;25.60;;;;;;;9.23;87.63;99921.53;126959;1279;107500;-74
2022/10/15 05:51:48;;;;;;;38.30;26.70;;;;;;;9.24;87.61;99920.84;126995;1278;107545;-73
2022/10/15 05:55:03;;;;;;;38.40;24.30;;;;;;;9.26;87.82;99923.02;126764;1278;107528;-74
2022/10/15 05:58:09;;;;;;;37.10;22.80;;;;;;;9.27;87.90;99926.75;127074;1278;107206;-77
2022/10/15 06:01:15;;;;;;;42.50;25.70;;;;;;;9.35;87.76;99930.05;127098;1279;107270;-76
2022/10/15 06:04:20;;;;;;;38.60;25.60;;;;;;;9.46;87.98;99934.67;126932;1278;107379;-72
2022/10/15 06:07:26;;;;;;;40.30;26.60;;;;;;;9.56;87.95;99937.16;126970;1284;107531;-71
2022/10/15 06:10:34;;;;;;;42.00;27.80;;;;;;;9.66;88.16;99937.96;126878;1278;108336;-68
2022/10/15 06:13:41;;;;;;;38.50;24.70;;;;;;;9.73;87.95;99938.88;126833;1272;108063;-70
2022/10/15 06:16:49;;;;;;;38.10;23.40;;;;;;;9.76;87.80;99940.84;126976;1278;107377;-69
2022/10/15 06:19:54;;;;;;;39.00;26.40;;;;;;;9.82;88.31;99946.47;127174;1280;107392;-73
2022/10/15 06:23:01;;;;;;;39.00;25.90;;;;;;;9.88;88.19;99946.42;127070;1278;105558;-78
2022/10/15 06:26:08;;;;;;;40.70;27.20;;;;;;;9.95;88.01;99945.33;127105;1278;106708;-77
2022/10/15 06:29:14;;;;;;;42.40;27.00;;;;;;;10.01;88.31;99942.94;127082;1279;107478;-77
2022/10/15 06:32:19;;;;;;;39.20;24.80;;;;;;;10.07;88.24;99947.53;127234;1278;107533;-77
2022/10/15 06:35:25;;;;;;;35.70;22.10;;;;;;;10.11;88.46;99940.83;127194;1278;107404;-72
2022/10/15 06:38:31;;;;;;;40.50;26.30;;;;;;;10.18;88.04;99938.84;127158;1279;107408;-71
2022/10/15 06:41:36;;;;;;;37.70;24.80;;;;;;;10.27;88.18;99938.72;127253;1278;107330;-69
2022/10/15 06:44:42;;;;;;;42.80;27.60;;;;;;;10.37;88.27;99940.72;127029;1278;107262;-73
2022/10/15 06:47:48;;;;;;;41.40;27.50;;;;;;;10.45;88.47;99944.64;127202;1272;107524;-69
2022/10/15 06:50:54;;;;;;;33.80;23.00;;;;;;;10.50;88.32;99947.35;127196;1279;108268;-70
2022/10/15 06:53:59;;;;;;;34.20;22.60;;;;;;;10.55;88.31;99948.05;127094;1279;107907;-70
2022/10/15 06:57:04;;;;;;;42.10;26.90;;;;;;;10.63;88.46;99946.73;127303;1279;107125;-73
2022/10/15 07:00:12;;;;;;;36.90;25.20;;;;;;;10.72;88.30;99950.73;127156;1278;106513;-71
2022/10/15 07:03:18;;;;;;;41.20;27.70;;;;;;;10.81;88.40;99948.40;126997;1279;108153;-71
2022/10/15 07:06:24;;;;;;;44.50;28.90;;;;;;;10.90;88.80;99942.30;127239;1272;107531;-72
2022/10/15 07:09:29;;;;;;;38.80;26.30;;;;;;;10.99;88.63;99937.08;127204;1279;107362;-71
2022/10/15 07:12:35;;;;;;;38.00;25.30;;;;;;;11.08;88.88;99939.46;126893;1278;107989;-71
2022/10/15 07:15:40;;;;;;;38.20;26.90;;;;;;;11.18;88.92;99942.84;126946;1272;107527;-70
2022/10/15 07:18:48;;;;;;;38.20;26.80;;;;;;;11.30;88.85;99942.13;127070;1278;108035;-69
2022/10/15 07:21:54;;;;;;;43.20;27.40;;;;;;;11.42;88.76;99942.07;126927;1278;108245;-70
2022/10/15 07:24:59;;;;;;;39.20;27.60;;;;;;;11.51;88.96;99940.91;127059;1286;107517;-72
2022/10/15 07:28:05;;;;;;;36.30;24.80;;;;;;;11.60;89.03;99942.37;126949;1278;107258;-70
2022/10/15 07:31:10;;;;;;;36.20;24.40;;;;;;;11.73;89.02;99941.66;127031;1279;106594;-73
2022/10/15 07:34:15;;;;;;;37.60;25.50;;;;;;;11.90;89.15;99938.95;127156;1278;107511;-70
2022/10/15 07:37:21;;;;;;;38.70;24.90;;;;;;;12.09;89.01;99937.02;127059;1279;108862;-69
2022/10/15 07:40:26;;;;;;;40.60;26.80;;;;;;;12.25;88.99;99932.77;126831;1278;107371;-71
2022/10/15 07:43:32;;;;;;;37.30;26.30;;;;;;;12.36;88.95;99932.48;127743;1285;107796;-70
2022/10/15 07:46:37;;;;;;;40.10;25.40;;;;;;;12.44;89.04;99924.21;127092;1279;108105;-71
2022/10/15 07:49:43;;;;;;;32.90;22.40;;;;;;;12.53;88.86;99925.01;127779;1279;107448;-73
2022/10/15 07:52:49;;;;;;;36.90;26.00;;;;;;;12.63;88.86;99925.01;127260;1280;107391;-70
2022/10/15 07:55:57;;;;;;;37.00;25.50;;;;;;;12.74;88.90;99927.60;127980;1286;108137;-72
2022/10/15 07:59:04;;;;;;;38.70;26.40;;;;;;;12.87;88.71;99926.45;127133;1286;107430;-74
2022/10/15 08:02:15;;;;;;;39.90;25.00;;;;;;;12.99;88.41;99924.81;127199;1278;107447;-70
2022/10/15 08:05:20;;;;;;;34.40;23.00;;;;;;;13.09;88.46;99924.02;126908;1279;107247;-70
2022/10/15 08:08:25;;;;;;;32.10;23.10;;;;;;;13.15;88.24;99928.09;127268;1272;108115;-71
2022/10/15 08:11:31;;;;;;;31.40;23.10;;;;;;;13.25;88.09;99928.95;127689;1282;107664;-70
2022/10/15 08:14:37;;;;;;;30.80;23.50;;;;;;;13.34;87.96;99928.63;127577;1272;108173;-71
2022/10/15 08:17:42;;;;;;;31.80;22.60;;;;;;;13.43;87.97;99927.38;127580;1281;107495;-71
2022/10/15 08:20:48;;;;;;;28.00;19.00;;;;;;;13.50;87.97;99928.23;127433;1278;107603;-71
2022/10/15 08:23:53;;;;;;;27.40;19.80;;;;;;;13.56;87.87;99927.26;127217;1278;107930;-74
2022/10/15 08:27:01;;;;;;;30.70;21.70;;;;;;;13.66;87.73;99923.59;126861;1286;108204;-69
2022/10/15 08:30:08;;;;;;;30.90;22.00;;;;;;;13.74;87.52;99923.73;126924;1279;107635;-71
2022/10/15 08:33:13;;;;;;;31.40;22.20;;;;;;;13.81;87.35;99924.58;126747;1286;107510;-72
2022/10/15 08:36:19;;;;;;;31.40;22.10;;;;;;;13.88;87.16;99922.87;126940;1279;107629;-72
2022/10/15 08:39:24;;;;;;;27.50;20.20;;;;;;;13.96;87.45;99925.23;127076;1286;107545;-72
2022/10/15 08:42:36;;;;;;;28.60;19.10;;;;;;;14.10;87.32;99925.55;127235;1279;107303;-71
2022/10/15 08:45:45;;;;;;;28.40;19.60;;;;;;;14.26;87.02;99919.21;126964;1278;105619;-69
2022/10/15 08:48:53;;;;;;;27.50;20.70;;;;;;;14.40;86.84;99917.84;127191;1279;110364;-69
2022/10/15 08:52:08;;;;;;;26.70;20.30;;;;;;;14.53;86.52;99913.59;126965;1278;107529;-68
2022/10/15 08:55:16;;;;;;;26.40;19.90;;;;;;;14.64;86.37;99909.98;126905;1279;106571;-71
2022/10/15 08:58:25;;;;;;;28.20;20.30;;;;;;;14.73;85.97;99909.39;127420;1279;107537;-70
2022/10/15 09:01:38;;;;;;;25.00;18.30;;;;;;;14.78;86.12;99906.11;127032;1286;107474;-69
2022/10/15 09:04:53;;;;;;;25.70;17.80;;;;;;;14.86;85.87;99902.02;127416;1278;106502;-69
2022/10/15 09:08:04;;;;;;;23.30;18.00;;;;;;;15.04;85.82;99896.67;126978;1279;107895;-70
2022/10/15 09:11:19;;;;;;;23.00;17.50;;;;;;;15.19;85.78;99895.91;127206;1278;107362;-71
2022/10/15 09:14:31;;;;;;;21.60;17.80;;;;;;;15.29;85.59;99894.56;127016;1285;108006;-72
2022/10/15 09:17:38;;;;;;;24.00;18.60;;;;;;;15.36;85.23;99896.36;126885;1285;108669;-70
2022/10/15 09:20:44;;;;;;;23.90;18.10;;;;;;;15.32;85.13;99895.13;126886;1279;107426;-72
2022/10/15 09:23:50;;;;;;;23.90;18.40;;;;;;;15.25;85.12;99898.83;128118;1279;107691;-71
2022/10/15 09:27:06;;;;;;;21.70;16.70;;;;;;;15.25;85.01;99894.68;127178;1294;108783;-72
2022/10/15 09:30:26;;;;;;;20.90;15.60;;;;;;;15.36;85.12;99892.98;127666;1286;107281;-71
2022/10/15 09:33:41;;;;;;;21.50;16.30;;;;;;;15.53;84.60;99890.17;126902;1286;107142;-69
2022/10/15 09:36:52;;;;;;;23.40;17.40;;;;;;;15.63;84.45;99886.91;127174;1286;108652;-71
2022/10/15 09:40:14;;;;;;;21.50;17.30;;;;;;;15.67;84.14;99886.60;127444;1278;107363;-70
2022/10/15 09:43:29;;;;;;;23.70;17.40;;;;;;;15.62;83.72;99886.94;126812;1280;108065;-72
2022/10/15 09:46:42;;;;;;;22.70;16.50;;;;;;;15.56;83.72;99886.92;127053;1286;107458;-72
2022/10/15 09:49:47;;;;;;;22.50;17.50;;;;;;;15.50;83.53;99881.88;127193;1279;107404;-71
2022/10/15 09:53:04;;;;;;;21.20;15.80;;;;;;;15.48;83.57;99873.58;126814;1278;107615;-70
2022/10/15 09:56:16;;;;;;;19.60;15.00;;;;;;;15.51;83.68;99872.45;127024;1278;108187;-70
2022/10/15 09:59:23;;;;;;;21.60;15.60;;;;;;;15.62;83.74;99869.10;126933;1278;107627;-70
2022/10/15 10:02:29;;;;;;;21.10;16.30;;;;;;;15.80;83.50;99870.27;127007;1286;107621;-69
2022/10/15 10:05:37;;;;;;;22.70;17.50;;;;;;;15.98;83.25;99872.31;126983;1278;110406;-71
2022/10/15 10:08:50;;;;;;;22.00;16.90;;;;;;;16.14;83.09;99872.86;127132;1286;108271;-70
2022/10/15 10:11:58;;;;;;;21.50;16.80;;;;;;;16.29;82.90;99875.55;126979;1278;107509;-71
2022/10/15 10:15:21;;;;;;;22.10;17.30;;;;;;;16.41;81.92;99871.45;126907;1279;107545;-72
2022/10/15 10:18:27;;;;;;;21.10;16.50;;;;;;;16.47;81.30;99873.44;126964;1286;106391;-71
2022/10/15 10:21:34;;;;;;;20.40;14.80;;;;;;;16.47;81.53;99874.30;126760;1286;107954;-74
2022/10/15 10:24:39;;;;;;;18.10;15.30;;;;;;;16.44;81.30;99875.23;127067;1279;107544;-69
2022/10/15 10:27:47;;;;;;;20.80;16.00;;;;;;;16.43;81.19;99871.89;126891;1279;108158;-72
2022/10/15 10:31:05;;;;;;;19.10;15.40;;;;;;;16.41;79.93;99868.44;127000;1278;107864;-79
2022/10/15 10:34:17;;;;;;;18.80;15.70;;;;;;;16.34;80.59;99871.52;127103;1278;107409;-80
2022/10/15 10:37:24;;;;;;;20.30;16.30;;;;;;;16.28;80.37;99867.05;126908;1278;177905;-72
2022/10/15 10:40:34;;;;;;;19.70;16.10;;;;;;;16.25;80.05;99870.36;126801;1280;107228;-70
2022/10/15 10:43:55;;;;;;;20.80;17.30;;;;;;;16.27;80.19;99876.37;126695;1272;108144;-68
2022/10/15 10:47:15;;;;;;;19.80;15.20;;;;;;;16.35;78.92;99875.86;126833;1272;107670;-66
2022/10/15 10:50:39;;;;;;;20.00;16.40;;;;;;;16.43;78.92;99876.41;128157;1286;108216;-69
2022/10/15 10:53:54;;;;;;;19.20;16.30;;;;;;;16.44;78.57;99879.89;126792;1272;107872;-68
2022/10/15 10:57:01;;;;;;;20.00;15.70;;;;;;;16.48;78.91;99880.73;126822;1279;107990;-67
2022/10/15 11:00:17;;;;;;;19.30;16.90;;;;;;;16.58;78.80;99879.86;126879;1278;108143;-69
2022/10/15 11:03:33;;;;;;;21.20;17.00;;;;;;;16.72;78.30;99882.67;126749;1280;108127;-69
2022/10/15 11:06:56;;;;;;;20.80;17.10;;;;;;;16.87;77.85;99882.42;126732;1278;107459;-69
2022/10/15 11:10:02;;;;;;;;;;;;;;;17.06;77.91;99882.71;126793;1279;108652;-69
2022/10/15 11:13:25;;;;;;;25.70;16.90;;;;;;;17.20;77.53;99879.63;126817;1279;107914;-68
2022/10/15 11:16:38;;;;;;;18.30;14.70;;;;;;;17.30;77.49;99881.42;126959;1278;105641;-69
2022/10/15 11:19:54;;;;;;;18.50;15.40;;;;;;;17.39;76.85;99885.83;126919;1272;108300;-69
2022/10/15 11:23:14;;;;;;;19.30;16.50;;;;;;;17.49;76.28;99882.67;126985;1271;107503;-70
2022/10/15 11:26:32;;;;;;;19.90;15.80;;;;;;;17.64;76.62;99879.10;126827;1278;106745;-69
2022/10/15 11:29:47;;;;;;;19.40;16.10;;;;;;;17.80;76.11;99879.30;126653;1279;108232;-68
2022/10/15 11:33:00;;;;;;;18.90;15.30;;;;;;;17.98;76.12;99880.14;126618;1284;108329;-70
2022/10/15 11:36:23;;;;;;;21.20;15.60;;;;;;;18.17;75.68;99869.44;126569;1279;107922;-70
2022/10/15 11:39:59;;;;;;;18.70;16.10;;;;;;;18.32;75.54;99867.61;126748;1288;106505;-70
2022/10/15 11:43:14;;;;;;;19.40;15.60;;;;;;;18.38;75.61;99868.46;126814;1281;108042;-70
2022/10/15 11:46:32;;;;;;;20.00;16.70;;;;;;;18.39;74.81;99871.28;126861;1278;108149;-69
2022/10/15 11:49:53;;;;;;;18.20;15.90;;;;;;;18.38;75.42;99869.61;126713;1278;107310;-68
2022/10/15 11:53:19;;;;;;;21.20;16.20;;;;;;;18.38;74.55;99873.90;126709;1272;107444;-70
2022/10/15 11:56:28;;;;;;;19.10;15.60;;;;;;;18.33;74.39;99872.95;127122;1286;107731;-69
2022/10/15 11:59:39;;;;;;;17.40;15.60;;;;;;;18.33;74.33;99872.80;126718;1281;107505;-70
2022/10/15 12:02:46;;;;;;;19.30;15.30;;;;;;;18.35;73.99;99871.21;126704;1286;107089;-68
2022/10/15 12:05:55;;;;;;;18.50;15.20;;;;;;;18.38;73.71;99871.79;126576;1272;106396;-68
2022/10/15 12:09:03;;;;;;;18.10;15.40;;;;;;;18.39;73.31;99877.52;126681;1275;107583;-67
2022/10/15 12:12:12;;;;;;;19.30;14.80;;;;;;;18.30;73.15;99876.21;126649;1279;108291;-68
2022/10/15 12:15:28;;;;;;;17.50;13.80;;;;;;;18.17;72.48;99882.98;126808;1279;108015;-75
2022/10/15 12:18:39;;;;;;;15.40;12.70;;;;;;;18.00;71.52;99885.69;126557;1286;106345;-70
2022/10/15 12:22:06;;;;;;;14.70;12.70;;;;;;;17.83;72.04;99885.83;127016;1281;107431;-78
2022/10/15 12:25:43;;;;;;;14.00;12.40;;;;;;;17.64;71.75;99888.78;128696;1281;107533;-77
2022/10/15 12:28:53;;;;;;;17.70;13.20;;;;;;;17.44;71.16;99890.35;127506;1279;107603;-78
2022/10/15 12:31:58;;;;;;;19.10;13.00;;;;;;;17.33;71.92;99890.34;127157;1273;108080;-77
2022/10/15 12:35:19;;;;;;;15.50;12.50;;;;;;;17.25;71.83;99888.83;127446;1278;107470;-78
2022/10/15 12:38:30;;;;;;;15.60;12.80;;;;;;;17.17;71.85;99885.72;126863;1278;107414;-72
2022/10/15 12:41:42;;;;;;;18.00;13.40;;;;;;;17.10;72.00;99883.96;127002;1278;107565;-78
2022/10/15 12:44:51;;;;;;;14.50;12.20;;;;;;;17.04;72.04;99883.13;127127;1272;107563;-76
2022/10/15 12:48:13;;;;;;;15.40;13.10;;;;;;;16.97;71.87;99882.66;126936;1281;107541;-78
2022/10/15 12:51:40;;;;;;;15.30;12.30;;;;;;;16.93;72.02;99883.20;127058;1271;107581;-82
2022/10/15 12:54:46;;;;;;;14.90;12.30;;;;;;;16.91;72.10;99884.92;127339;1275;107410;-83
2022/10/15 12:58:00;;;;;;;17.30;14.10;;;;;;;16.91;72.07;99887.45;127174;1271;106548;-80
2022/10/15 13:01:26;;;;;;;19.40;13.10;;;;;;;16.90;71.20;99887.94;127080;1271;107517;-80
2022/10/15 13:04:42;;;;;;;17.00;13.20;;;;;;;16.87;70.97;99891.50;127322;1278;107298;-76
2022/10/15 13:07:48;;;;;;;17.70;12.50;;;;;;;16.86;70.60;99892.42;127340;1279;109278;-75
2022/10/15 13:10:57;;;;;;;15.20;12.80;;;;;;;16.85;70.44;99890.75;127021;1279;106008;-76
2022/10/15 13:14:19;;;;;;;17.00;14.40;;;;;;;16.84;70.81;99892.82;126986;1279;107358;-76
2022/10/15 13:17:25;;;;;;;13.80;12.10;;;;;;;16.82;70.64;99888.19;126889;1286;107260;-73
2022/10/15 13:20:37;;;;;;;14.60;11.60;;;;;;;16.81;70.42;99887.64;126718;1281;107577;-76
2022/10/15 13:23:47;;;;;;;17.70;12.00;;;;;;;16.78;70.44;99888.50;127059;1271;107517;-76
2022/10/15 13:26:53;;;;;;;14.00;11.90;;;;;;;16.75;70.61;99892.01;127616;1278;107473;-76
2022/10/15 13:30:01;;;;;;;14.90;12.30;;;;;;;16.73;70.64;99891.05;127334;1278;107481;-76
2022/10/15 13:33:09;;;;;;;16.50;13.30;;;;;;;16.71;70.20;99885.36;127510;1280;108798;-77
2022/10/15 13:36:21;;;;;;;15.20;12.60;;;;;;;16.68;70.25;99887.48;127481;1278;107478;-76
2022/10/15 13:39:35;;;;;;;17.30;13.30;;;;;;;16.67;70.52;99887.30;127140;1284;107475;-79
2022/10/15 13:43:00;;;;;;;15.60;12.50;;;;;;;16.65;70.67;99884.90;127104;1278;107504;-74
2022/10/15 13:46:06;;;;;;;15.80;13.30;;;;;;;16.61;70.65;99887.98;127125;1279;107678;-74
2022/10/15 13:49:14;;;;;;;13.70;11.40;;;;;;;16.55;70.69;99890.13;127158;1286;107465;-77
2022/10/15 13:52:20;;;;;;;16.60;12.70;;;;;;;16.51;70.88;99891.23;127113;1285;108509;-74
2022/10/15 13:55:28;;;;;;;15.50;12.20;;;;;;;16.48;70.88;99889.68;127017;1279;107654;-79
2022/10/15 13:58:36;;;;;;;15.90;12.50;;;;;;;16.50;70.86;99890.23;127358;1278;107512;-77
2022/10/15 14:01:48;;;;;;;16.30;13.70;;;;;;;16.53;70.92;99888.41;127420;1278;108662;-76
2022/10/15 14:04:53;;;;;;;15.90;14.20;;;;;;;16.55;70.79;99889.80;127174;1279;107488;-75
2022/10/15 14:07:59;;;;;;;17.10;13.70;;;;;;;16.56;70.70;99890.75;127138;1278;107533;-84
2022/10/15 14:11:05;;;;;;;15.70;13.20;;;;;;;16.56;70.77;99889.84;127358;1278;107324;-83
2022/10/15 14:14:31;;;;;;;19.40;13.40;;;;;;;16.55;70.88;99892.20;127087;1278;107525;-82
2022/10/15 14:17:36;;;;;;;15.10;13.40;;;;;;;16.51;70.88;99894.29;127093;1286;107390;-80